aviador You're here:

PAHN Decoded Metar

HAINES in AK, USA
Report Time2017-09-21 18:54:00
UTC Time2017-09-21 19:27:12
Flight Rules mvfr MVFR
WindCalm
Visibility9999 m
Phenomena:N/A
Clouds:Overcast 016 Hf
Ceiling1,600 ft
Temp08°C (ISA -7)
Dew Point08°C (100% RH)
AAT7.5°C
QNH1019 hPa
Density Alt-879 ft
Elevation16 ft
Report Wrong Elevation
Raw Report
PAHN 211854Z AUTO 00000KT 10SM OVC016 08/08 A3010 RMK AO2 SLP193
T00830078 TSNO=

Extra information for PAHN:More info

Metar Taf Metar & Taf Last 4 Metars F.Rules Stats Wind Profile Meteogram Temp Stats Airport Information Weather charts Add Link Nearby VenuesMetar ALERT Operation Metar Decoded Social comments

AIRNAV info for PAHN